Home   Weather   Slovakia   Košice   Past weeks
Flag for Slovakia

Past Weather in Košice, Slovakia — Yesterday and Last 2 Weeks

Currently: 57 °F. Clear. (Weather station: Kosice - Barca, Slovakia). See more current weather

Past Weather in Košice — Graph

°F

Košice Temperature Yesterday

Maximum temperature yesterday: 70 °F (at 5:00 pm)
Minimum temperature yesterday: 54 °F (at 1:00 am)
Average temperature yesterday: 61 °F

High & Low Weather Summary for the Past Weeks

 TemperatureHumidityPressure
High81 °F (Jun 8, 3:30 pm)100% (May 31, 4:00 am)30.09 "Hg (May 31, 4:00 am)
Low54 °F (May 31, 4:00 am)42% (Jun 8, 4:00 pm)29.62 "Hg (Jun 10, 6:30 pm)
Average64 °F79%29.90 "Hg
* Reported May 31 12:00 am — Jun 15 12:00 am, Košice. Weather by CustomWeather, © 2024

Note: Actual official high and low records may vary slightly from our data, if they occured in-between our weather recording intervals... More about our weather records

Košice Weather History for the Previous 24 Hours

Scroll right to see more
 ConditionsComfort  
Time TempWeatherWind HumidityBarometerVisibility
12:00 am
Sat, Jun 15
57 °FClear.3 mph77%30.01 "Hg10 mi
11:30 pm
Fri, Jun 14
59 °FClear.6 mph72%30.01 "Hg10 mi
11:00 pm59 °FClear.6 mph77%30.01 "Hg10 mi
10:30 pm61 °FClear.5 mph68%30.01 "Hg10 mi
10:00 pm63 °FClear.6 mph64%30.01 "Hg10 mi
9:30 pm63 °FClear.5 mph59%30.01 "Hg10 mi
9:00 pm64 °FClear.3 mph60%29.98 "Hg10 mi
8:30 pm63 °FSunny.3 mph64%29.98 "Hg10 mi
8:00 pm63 °FPassing clouds.5 mph64%29.98 "HgN/A
7:00 pm66 °FPassing clouds.7 mph56%29.98 "HgN/A
6:30 pm68 °FPassing clouds.7 mph49%29.98 "HgN/A
6:00 pm68 °FPassing clouds.7 mph49%29.98 "HgN/A
5:30 pm68 °FPassing clouds.7 mph46%29.98 "HgN/A
5:00 pm70 °FPassing clouds.8 mph46%29.98 "HgN/A
3:30 pm68 °FPassing clouds.10 mph49%29.98 "HgN/A
2:30 pm68 °FPassing clouds.13 mph53%29.98 "HgN/A
2:00 pm68 °FPassing clouds.13 mph49%29.98 "HgN/A
1:00 pm66 °FPassing clouds.14 mph49%29.98 "HgN/A
12:30 pm66 °FPassing clouds.14 mph52%29.98 "HgN/A
12:00 pm64 °FPassing clouds.13 mph52%29.98 "HgN/A
11:30 am64 °FScattered clouds.15 mph52%29.98 "HgN/A
11:00 am64 °FScattered clouds.15 mph52%29.98 "HgN/A
10:30 am63 °FScattered clouds.16 mph59%30.01 "HgN/A
9:30 am61 °FPassing clouds.17 mph59%29.98 "HgN/A
9:00 am59 °FPassing clouds.20 mph63%30.01 "HgN/A
8:30 am59 °FSunny.18 mph63%29.98 "Hg10 mi
8:00 am57 °FSunny.17 mph67%30.01 "Hg10 mi
7:30 am57 °FSunny.20 mph67%29.98 "Hg10 mi
7:00 am55 °FSunny.18 mph72%29.98 "Hg10 mi
6:30 am55 °FSunny.17 mph67%29.98 "Hg10 mi
6:00 am55 °FPassing clouds.13 mph72%29.98 "HgN/A
5:30 am54 °FPassing clouds.13 mph77%29.98 "HgN/A
4:30 am54 °FClear.12 mph77%29.98 "Hg10 mi
4:00 am54 °FClear.12 mph77%29.98 "Hg10 mi
3:00 am54 °FClear.8 mph88%29.98 "Hg10 mi
2:30 am54 °FClear.6 mph82%29.98 "Hg10 mi
2:00 am54 °FClear.6 mph88%29.95 "Hg10 mi
1:30 am54 °FClear.8 mph88%29.98 "Hg10 mi
1:00 am54 °FClear.7 mph88%29.98 "Hg10 mi
12:30 am55 °FPassing clouds.8 mph82%29.98 "HgN/A
12:00 am55 °FClear.9 mph82%29.98 "Hg10 mi
Weather by CustomWeather, © 2024

See weather overview